Strona główna
METAR-TAF:

METAR-TAF

Lotnisko :

Port lotniczy Kudat

Kudat, Malezja

Szerokość geograficzna: 06-55N, Długość geograficzna: 116-50E, wysokość: 3 m

Aktualna obserwacja pogody

Raport powstał 1 godzina i 5 minut temu, godzina 03:00 UTC
Wiatr 5 kt od wschodnio-północny wschód, zmienny między północ i wschodnio-południowy wschód
Temperatura 26°C
Wilgotność 89%
Ciśnienie 1011 hPa
Widzialność 10 km lub więcej
Mało chmury na wysokości 1300 ft
Przerywane chmury na wysokości 18000 ft
Zachmurzenie całkowite na wysokości 26000 ft

METAR: WBKT 110300Z 06005KT 010V120 9999 FEW013 BKN180 OVC260 26/24 Q1011

czas: 12:05 (04:05 UTC)


TAF: brakujący

Obserwacja i prognoza pogody dla ponad 4000 lotnisk (raport METAR i TAF).

Dostępne stacje oznaczono żółtymi i czerwonymi punktami na mapie.

Najedź kursorem aby zobaczyć nazwę stacji.

Kliknij aby zobaczyć obserwacje i prognozy pogody.

Aby zmienić mapę: kliknij na zielony przycisk z czarnym krzyżykiem, aby powiększyć; na zielony przycisk z myślnikiem, aby pomniejszyć; na zielone strzałki, aby przejść do map sąsiednich.


METAR-TAF: